首页
METAR-TAF:

METAR-TAF

机场 :

Batajnica, 塞尔维亚

纬度: 44-56-07N, 经度: 020-15-27E, 海拔: 86米

当前天气观测

该预报发布于28分钟前的01:00 UTC
风速2节,风向多变
温度 11°C
湿度 100%
气压 1018 hPa
能见度10公里或以上
1500米以下无云,无积雨云

METAR: LYBT 170100Z VRB02KT CAVOK 11/11 Q1018 NOSIG

时间: 03:28 (01:28 UTC)

预报

该预报发布于2小时和28分钟前的23:00 UTC
预报有效从17日的 00点(UTC)到 17日的 24点(UTC)
风速4节,风向北转西北
能见度10公里或以上
1500米以下无云,无积雨云
成为
从 17日的 01点(UTC)到 17日的 03点(UTC)
能見度: 3000
轻雾
短暂存在
从 17日的 03点(UTC)到 17日的 06点(UTC)
能見度: 0200
成为
从 17日的 06点(UTC)到 17日的 08点(UTC)
能见度10公里或以上

TAF: LYBT 162300Z 1700/1724 33004KT CAVOK TX27/1713Z TN08/1705Z BECMG 1701/1703 3000 BR TEMPO 1703/1706 0200 FG BECMG 1706/1708 9999 NSW

超过4000个机场的气象观测和天气预报(METAR&TAF报告)。

可查询的气象台以黄色和红色小点在地图上表示。

将鼠标移到小点上方,可查看气象台名称。

然后点击查看天气观测和预报。

如需切换地图:点击带黑十字的绿色按钮放大地图;点击带横线的绿色按钮缩小地图;或者点击绿色箭头查看邻近地区的地图。


METAR-TAF: